createdAt,value
2022-12-17T00:01:45.847Z,-0.01
2022-12-17T00:07:01.576Z,0.02
2022-12-17T00:12:17.168Z,0.06
2022-12-17T00:17:32.625Z,0.03
2022-12-17T00:22:48.219Z,0.08
2022-12-17T00:28:03.982Z,-0.09
2022-12-17T00:33:19.042Z,0.05
2022-12-17T00:38:35.735Z,0.03
2022-12-17T00:43:50.799Z,-0.07
2022-12-17T00:49:07.066Z,-0.07
2022-12-17T00:54:22.221Z,0.01
2022-12-17T00:59:37.534Z,-0.28
2022-12-17T01:04:52.914Z,-0.23
2022-12-17T01:10:09.103Z,-0.23
2022-12-17T01:15:25.622Z,-0.24
2022-12-17T01:20:41.361Z,-0.39
2022-12-17T01:25:57.094Z,-0.35
2022-12-17T01:31:12.929Z,-0.29
2022-12-17T01:36:28.591Z,-0.43
2022-12-17T01:41:44.811Z,-0.31
2022-12-17T01:47:06.492Z,-0.45
2022-12-17T01:52:21.923Z,-0.30
2022-12-17T01:57:37.450Z,-0.32
2022-12-17T02:02:53.285Z,-0.47
2022-12-17T02:08:32.364Z,-0.47
2022-12-17T02:14:00.773Z,-0.52
2022-12-17T02:19:42.190Z,-0.56
2022-12-17T02:25:13.912Z,-0.53
2022-12-17T02:30:29.966Z,-0.71
2022-12-17T02:35:50.319Z,-0.72
2022-12-17T02:41:06.573Z,-0.77
2022-12-17T02:46:23.052Z,-0.70
2022-12-17T02:51:39.238Z,-0.89
2022-12-17T02:57:16.933Z,-0.82
2022-12-17T03:02:32.814Z,-0.96
2022-12-17T03:07:48.527Z,-1.03
2022-12-17T03:13:04.749Z,-1.19
2022-12-17T03:18:20.166Z,-0.99
2022-12-17T03:23:37.696Z,-1.05
2022-12-17T03:28:54.141Z,-1.05
2022-12-17T03:34:22.080Z,-1.09
2022-12-17T03:39:40.095Z,-1.24
2022-12-17T03:44:55.212Z,-1.28
2022-12-17T03:50:18.679Z,-1.20
2022-12-17T03:55:36.751Z,-1.26
2022-12-17T04:00:54.086Z,-1.24
2022-12-17T04:06:35.323Z,-1.30
2022-12-17T04:11:51.990Z,-1.45
2022-12-17T04:17:07.302Z,-1.44
2022-12-17T04:22:22.248Z,-1.39
2022-12-17T04:27:37.541Z,-1.44
2022-12-17T04:32:52.527Z,-1.56
2022-12-17T04:38:07.387Z,-1.51
2022-12-17T04:43:26.904Z,-1.43
2022-12-17T04:48:42.033Z,-1.50
2022-12-17T04:53:57.317Z,-1.62
2022-12-17T04:59:12.492Z,-1.55
2022-12-17T05:04:27.544Z,-1.60
2022-12-17T05:09:42.613Z,-1.64
2022-12-17T05:14:57.603Z,-1.63
2022-12-17T05:20:12.651Z,-1.77
2022-12-17T05:25:27.768Z,-1.73
2022-12-17T05:30:43.260Z,-1.73
2022-12-17T05:35:58.144Z,-1.81
2022-12-17T05:41:18.414Z,-1.83
2022-12-17T05:46:33.401Z,-1.82
2022-12-17T05:51:48.918Z,-1.88
2022-12-17T05:57:03.827Z,-1.87
2022-12-17T06:02:19.288Z,-1.92
2022-12-17T06:07:34.459Z,-1.88
2022-12-17T06:12:49.233Z,-1.99
2022-12-17T06:18:16.928Z,-1.91
2022-12-17T06:23:32.233Z,-1.99
2022-12-17T06:28:50.499Z,-2.07
2022-12-17T06:34:05.993Z,-2.01
2022-12-17T06:45:00.707Z,-2.27
2022-12-17T06:50:15.862Z,-2.10
2022-12-17T06:55:30.649Z,-2.18
2022-12-17T07:00:45.621Z,-2.07
2022-12-17T07:06:01.039Z,-2.19
2022-12-17T07:11:20.354Z,-2.11
2022-12-17T07:16:35.897Z,-2.11
2022-12-17T07:21:51.264Z,-2.20
2022-12-17T07:27:06.571Z,-2.20
2022-12-17T07:32:21.838Z,-2.22
2022-12-17T07:37:37.313Z,-2.21
2022-12-17T07:42:52.370Z,-2.22
2022-12-17T07:48:11.769Z,-2.20
2022-12-17T07:53:27.303Z,-2.24
2022-12-17T07:58:42.303Z,-2.26
2022-12-17T08:03:57.305Z,-2.24
2022-12-17T08:09:12.365Z,-2.24
2022-12-17T08:14:27.314Z,-2.20
2022-12-17T08:19:42.345Z,-2.18
2022-12-17T08:24:57.255Z,-2.19
2022-12-17T08:30:12.380Z,-2.16
2022-12-17T08:35:27.537Z,-2.16
2022-12-17T08:40:42.778Z,-2.17
2022-12-17T08:45:57.523Z,-2.07
2022-12-17T08:51:12.994Z,-2.00
2022-12-17T08:56:28.423Z,-2.05
2022-12-17T09:01:44.339Z,-1.90
2022-12-17T09:06:59.791Z,-1.82
2022-12-17T09:12:15.390Z,-1.75
2022-12-17T09:17:30.614Z,-1.69
2022-12-17T09:22:50.996Z,-1.67
2022-12-17T09:28:09.933Z,-1.73
2022-12-17T10:19:13.062Z,-1.34
2022-12-17T11:20:45.116Z,-0.43
2022-12-17T11:26:16.868Z,-0.19
2022-12-17T11:32:10.268Z,-0.15
2022-12-17T11:56:39.584Z,-0.03
2022-12-17T12:01:57.847Z,0.02
2022-12-17T12:07:43.659Z,0.04
2022-12-17T12:13:29.660Z,0.10
2022-12-17T12:19:09.624Z,0.10
2022-12-17T12:25:17.862Z,0.16
2022-12-17T12:30:39.836Z,-0.02
2022-12-17T12:42:16.981Z,0.32
2022-12-17T12:48:12.327Z,0.17
2022-12-17T12:53:31.139Z,0.19
2022-12-17T12:58:52.828Z,0.24
2022-12-17T13:04:16.542Z,0.49
2022-12-17T13:09:16.066Z,0.55
2022-12-17T13:14:19.319Z,0.57
2022-12-17T13:19:18.595Z,0.62
2022-12-17T13:24:24.955Z,0.62
2022-12-17T13:29:32.148Z,0.64
2022-12-17T13:35:08.543Z,0.65
2022-12-17T13:40:37.143Z,0.66
2022-12-17T13:45:36.460Z,0.66
2022-12-17T13:50:35.308Z,0.71
2022-12-17T13:55:32.501Z,0.70
2022-12-17T14:00:30.934Z,0.64
2022-12-17T14:05:31.350Z,0.70
2022-12-17T14:10:28.411Z,0.70
2022-12-17T14:15:25.706Z,0.73
2022-12-17T14:20:24.127Z,0.69
2022-12-17T14:25:23.038Z,0.68
2022-12-17T14:30:22.050Z,0.67
2022-12-17T14:35:28.593Z,0.65
2022-12-17T14:40:25.899Z,0.57
2022-12-17T14:45:24.618Z,0.57
2022-12-17T14:50:20.930Z,0.56
2022-12-17T14:55:29.925Z,0.53
2022-12-17T15:00:26.637Z,0.50
2022-12-17T15:05:23.063Z,0.40
2022-12-17T15:10:20.564Z,0.40
2022-12-17T15:15:17.525Z,0.37
2022-12-17T15:20:18.479Z,0.27
2022-12-17T15:25:17.684Z,0.24
2022-12-17T15:30:16.180Z,0.22
2022-12-17T15:35:13.302Z,0.12
2022-12-17T15:40:11.784Z,0.15
2022-12-17T15:45:08.493Z,0.07
2022-12-17T15:50:05.230Z,0.04
2022-12-17T15:55:01.740Z,-0.06
2022-12-17T15:59:58.260Z,-0.02
2022-12-17T16:04:55.004Z,-0.08
2022-12-17T16:09:51.478Z,-0.13
2022-12-17T16:14:48.034Z,-0.14
2022-12-17T16:19:44.476Z,-0.21
2022-12-17T16:24:40.958Z,-0.25
2022-12-17T16:29:37.454Z,-0.36
2022-12-17T16:34:34.008Z,-0.33
2022-12-17T16:39:30.802Z,-0.36
2022-12-17T16:44:32.298Z,-0.39
2022-12-17T16:49:28.719Z,-0.36
2022-12-17T16:54:27.411Z,-0.38
2022-12-17T16:59:23.877Z,-0.46
2022-12-17T17:04:23.222Z,-0.51
2022-12-17T17:09:20.921Z,-0.66
2022-12-17T17:14:17.475Z,-0.56
2022-12-17T17:19:13.963Z,-0.70
2022-12-17T17:24:22.495Z,-0.58
2022-12-17T17:29:19.331Z,-0.62
2022-12-17T17:34:16.007Z,-0.65
2022-12-17T17:39:12.472Z,-0.76
2022-12-17T17:44:12.143Z,-0.69
2022-12-17T17:49:08.960Z,-0.77
2022-12-17T17:54:08.374Z,-0.78
2022-12-17T17:59:11.547Z,-0.83
2022-12-17T18:04:10.656Z,-0.82
2022-12-17T18:09:07.855Z,-0.86
2022-12-17T18:14:05.621Z,-0.87
2022-12-17T18:19:10.971Z,-0.94
2022-12-17T18:24:11.387Z,-0.93
2022-12-17T18:29:28.847Z,-0.92
2022-12-17T18:34:27.644Z,-0.97
2022-12-17T18:39:25.028Z,-1.07
2022-12-17T18:44:21.719Z,-1.06
2022-12-17T18:49:19.442Z,-1.08
2022-12-17T18:54:18.603Z,-1.09
2022-12-17T18:59:28.860Z,-1.12
2022-12-17T19:04:26.597Z,-1.15
2022-12-17T19:09:25.997Z,-1.22
2022-12-17T19:14:23.404Z,-1.20
2022-12-17T19:19:20.384Z,-1.25
2022-12-17T19:24:18.456Z,-1.30
2022-12-17T19:29:16.605Z,-1.32
2022-12-17T19:34:14.891Z,-1.35
2022-12-17T19:39:14.264Z,-1.33
2022-12-17T19:44:15.427Z,-1.40
2022-12-17T19:49:14.047Z,-1.44
2022-12-17T19:54:12.902Z,-1.49
2022-12-17T19:59:10.538Z,-1.59
2022-12-17T20:04:09.498Z,-1.62
2022-12-17T20:09:06.654Z,-1.63
2022-12-17T20:14:11.270Z,-1.69
2022-12-17T20:19:10.937Z,-1.72
2022-12-17T20:24:08.455Z,-1.80
2022-12-17T20:29:05.451Z,-1.73
2022-12-17T20:34:03.610Z,-1.75
2022-12-17T20:39:00.555Z,-1.78
2022-12-17T20:44:02.116Z,-1.76
2022-12-17T20:49:00.554Z,-1.79
2022-12-17T20:53:58.655Z,-1.80
2022-12-17T20:58:57.283Z,-1.87
2022-12-17T21:03:55.221Z,-1.88
2022-12-17T21:08:53.624Z,-1.93
2022-12-17T21:13:50.662Z,-1.99
2022-12-17T21:18:47.493Z,-2.00
2022-12-17T21:23:45.237Z,-2.01
2022-12-17T21:28:44.919Z,-2.03
2022-12-17T21:33:41.393Z,-2.04
2022-12-17T21:38:38.880Z,-2.07
2022-12-17T21:43:37.557Z,-2.12
2022-12-17T21:48:41.641Z,-2.19
2022-12-17T21:53:42.207Z,-2.24
2022-12-17T22:03:57.881Z,-2.26
2022-12-17T22:08:58.338Z,-2.29
2022-12-17T22:14:15.534Z,-2.31
2022-12-17T22:19:22.227Z,-2.39
2022-12-17T22:24:22.881Z,-2.46
2022-12-17T22:29:37.893Z,-2.47
2022-12-17T22:35:29.884Z,-2.54
2022-12-17T22:44:31.972Z,-2.55
2022-12-17T22:45:12.122Z,-2.54
2022-12-17T22:50:10.514Z,-2.59
2022-12-17T22:55:07.690Z,-2.55
2022-12-17T23:00:09.540Z,-2.55
2022-12-17T23:05:06.530Z,-2.63
2022-12-17T23:10:03.474Z,-2.54
2022-12-17T23:15:01.129Z,-2.60
2022-12-17T23:20:00.620Z,-2.59
2022-12-17T23:24:57.089Z,-2.68
2022-12-17T23:29:53.552Z,-2.72
2022-12-17T23:34:50.023Z,-2.76
2022-12-17T23:39:46.512Z,-2.76
2022-12-17T23:44:42.904Z,-2.84
2022-12-17T23:49:39.317Z,-2.85
2022-12-17T23:54:35.761Z,-2.88
2022-12-17T23:59:32.306Z,-2.95
